Time;durP1;ratioP1;P1;durP2;ratioP2;P2;SDS_P1;SDS_P2;PMS_P1;PMS_P2;Temp;Humidity;BMP_temperature;BMP_pressure;BME280_temperature;BME280_humidity;BME280_pressure;Samples;Min_cycle;Max_cycle;Signal;HPM_P1;HPM_P2
2021/12/07 00:00:47;;;;;;;3.35;1.27;;;16.90;59.80;;;;;;5073250;28;20062;-83
2021/12/07 00:03:12;;;;;;;2.72;1.50;;;16.90;59.70;;;;;;5091436;28;20088;-82
2021/12/07 00:05:38;;;;;;;7.35;1.52;;;16.90;59.70;;;;;;5087761;28;20059;-84
2021/12/07 00:08:05;;;;;;;3.72;1.45;;;16.90;59.70;;;;;;5091382;28;20032;-84
2021/12/07 00:10:31;;;;;;;3.88;1.45;;;16.90;59.70;;;;;;5091420;28;20020;-83
2021/12/07 00:12:57;;;;;;;3.63;1.20;;;16.90;59.70;;;;;;5091533;28;20016;-82
2021/12/07 00:15:24;;;;;;;3.63;1.23;;;16.90;59.70;;;;;;5091268;28;20021;-83
2021/12/07 00:17:50;;;;;;;4.22;1.35;;;16.90;59.70;;;;;;5091537;28;20383;-83
2021/12/07 00:20:19;;;;;;;4.22;1.40;;;16.90;59.60;;;;;;5089851;28;20031;-82
2021/12/07 00:22:49;;;;;;;3.60;1.60;;;16.90;59.60;;;;;;5089248;28;20033;-83
2021/12/07 00:25:15;;;;;;;2.90;1.15;;;16.90;59.70;;;;;;5062273;28;20024;-82
2021/12/07 00:27:41;;;;;;;3.33;1.45;;;16.90;59.70;;;;;;5078712;28;20034;-82
2021/12/07 00:30:09;;;;;;;3.63;1.48;;;16.90;59.70;;;;;;5071410;28;20020;-82
2021/12/07 00:32:40;;;;;;;2.78;1.35;;;16.90;60.00;;;;;;5090217;28;20020;-82
2021/12/07 00:37:56;;;;;;;3.03;1.25;;;16.90;60.80;;;;;;5091499;28;20035;-82
2021/12/07 00:40:24;;;;;;;3.55;1.45;;;16.90;61.00;;;;;;5090848;28;20032;-82
2021/12/07 00:42:50;;;;;;;3.83;1.50;;;16.90;61.00;;;;;;5088081;28;20029;-81
2021/12/07 00:45:19;;;;;;;3.50;1.15;;;16.90;61.00;;;;;;5070664;28;20058;-82
2021/12/07 00:47:46;;;;;;;3.55;1.45;;;16.90;61.10;;;;;;5052744;28;20039;-82
2021/12/07 00:50:12;;;;;;;3.95;1.40;;;16.90;61.00;;;;;;5052822;28;20017;-82
2021/12/07 00:52:38;;;;;;;3.15;1.38;;;16.90;61.00;;;;;;5052822;28;20051;-82
2021/12/07 00:55:13;;;;;;;4.53;1.52;;;16.90;60.90;;;;;;5071175;28;20032;-82
2021/12/07 00:57:39;;;;;;;4.50;1.40;;;16.90;60.90;;;;;;5052646;28;20032;-82
2021/12/07 01:00:08;;;;;;;3.80;1.17;;;16.90;60.90;;;;;;5052780;28;20086;-82
2021/12/07 01:02:34;;;;;;;3.65;1.30;;;16.90;60.80;;;;;;5071106;28;20484;-82
2021/12/07 01:05:08;;;;;;;5.57;1.27;;;16.90;60.70;;;;;;5070428;28;20036;-82
2021/12/07 01:27:04;;;;;;;5.63;1.65;;;16.90;60.30;;;;;;5070985;28;20096;-82
2021/12/07 01:29:30;;;;;;;3.75;1.40;;;16.90;60.30;;;;;;5070419;28;20477;-82
2021/12/07 01:32:10;;;;;;;2.90;1.40;;;16.90;60.20;;;;;;5071514;28;20081;-82
2021/12/07 01:37:35;;;;;;;3.53;1.20;;;16.80;60.00;;;;;;5082947;28;20372;-82
2021/12/07 01:49:44;;;;;;;3.35;1.20;;;16.80;59.90;;;;;;5094057;28;20082;-83
2021/12/07 02:01:50;;;;;;;;;;;16.80;59.80;;;;;;5080791;28;20105;-83
2021/12/07 02:04:16;;;;;;;4.45;1.20;;;16.80;59.70;;;;;;5073478;28;20348;-83
2021/12/07 02:06:42;;;;;;;4.97;1.20;;;16.80;59.70;;;;;;5074288;28;20044;-84
2021/12/07 02:09:10;;;;;;;4.22;1.20;;;16.80;59.60;;;;;;5055752;28;20528;-83
2021/12/07 02:11:39;;;;;;;5.32;1.30;;;16.80;59.60;;;;;;5073808;28;20032;-83
2021/12/07 02:14:16;;;;;;;3.83;1.50;;;16.80;59.60;;;;;;5073925;28;20028;-83
2021/12/07 02:16:49;;;;;;;3.53;1.20;;;16.80;59.60;;;;;;5074398;28;20032;-82
2021/12/07 02:19:15;;;;;;;4.18;1.02;;;16.80;59.50;;;;;;5073094;28;20103;-82
2021/12/07 02:21:41;;;;;;;4.57;1.42;;;16.80;59.50;;;;;;5082198;28;20032;-83
2021/12/07 02:24:07;;;;;;;3.88;1.10;;;16.80;59.40;;;;;;5078606;28;20123;-83
2021/12/07 02:26:33;;;;;;;4.32;1.08;;;16.80;59.50;;;;;;5090426;28;20082;-82
2021/12/07 02:28:58;;;;;;;3.25;1.23;;;16.80;59.40;;;;;;5088629;28;20116;-83
2021/12/07 02:31:25;;;;;;;3.63;1.33;;;16.80;59.40;;;;;;5081983;28;20020;-83
2021/12/07 02:33:51;;;;;;;4.15;1.30;;;16.80;59.30;;;;;;5093100;28;20434;-83
2021/12/07 02:36:17;;;;;;;4.75;1.17;;;16.80;59.30;;;;;;5071915;28;20054;-82
2021/12/07 02:38:43;;;;;;;4.45;1.40;;;16.80;59.30;;;;;;5089273;28;20025;-82
2021/12/07 02:41:08;;;;;;;3.42;1.33;;;16.80;59.20;;;;;;5073825;28;20070;-82
2021/12/07 02:43:35;;;;;;;2.97;1.00;;;16.70;59.10;;;;;;5054591;28;20043;-83
2021/12/07 02:46:01;;;;;;;3.30;1.48;;;16.70;59.10;;;;;;5086525;28;20023;-83
2021/12/07 02:48:26;;;;;;;3.75;1.10;;;16.70;59.10;;;;;;5092874;28;20028;-83
2021/12/07 02:50:52;;;;;;;4.97;1.10;;;16.80;59.20;;;;;;5090387;28;20052;-82
2021/12/07 02:53:25;;;;;;;4.00;1.35;;;16.70;59.10;;;;;;5054360;28;20024;-82
2021/12/07 02:55:52;;;;;;;3.00;1.05;;;16.70;59.10;;;;;;5054479;28;20028;-82
2021/12/07 02:58:18;;;;;;;4.15;1.20;;;16.70;59.10;;;;;;5073393;28;20487;-82
2021/12/07 03:00:56;;;;;;;5.53;1.25;;;16.70;59.00;;;;;;5076140;28;20024;-82
2021/12/07 03:03:21;;;;;;;3.88;1.20;;;16.70;58.90;;;;;;5090957;28;20048;-82
2021/12/07 03:05:59;;;;;;;3.00;0.90;;;16.70;58.90;;;;;;5091054;28;20026;-82
2021/12/07 03:09:09;;;;;;;5.20;1.65;;;16.70;58.90;;;;;;5073304;28;20356;-81
2021/12/07 03:27:56;;;;;;;5.78;1.42;;;16.70;58.70;;;;;;5072533;28;20036;-81
2021/12/07 03:30:22;;;;;;;4.40;1.20;;;16.70;58.60;;;;;;5077381;28;20028;-81
2021/12/07 03:32:48;;;;;;;2.70;0.80;;;16.70;58.70;;;;;;5092263;28;20031;-82
2021/12/07 03:35:15;;;;;;;3.65;1.08;;;16.70;58.70;;;;;;5090861;28;20487;-83
2021/12/07 03:37:40;;;;;;;3.72;1.33;;;16.70;58.70;;;;;;5089743;28;20065;-82
2021/12/07 03:40:08;;;;;;;1.80;0.93;;;16.70;58.60;;;;;;5058685;28;20036;-82
2021/12/07 03:42:34;;;;;;;2.47;0.82;;;16.70;58.60;;;;;;5081448;28;20053;-82
2021/12/07 03:45:00;;;;;;;4.53;0.98;;;16.70;58.60;;;;;;5074092;28;20104;-82
2021/12/07 03:47:25;;;;;;;3.55;1.05;;;16.70;58.60;;;;;;5077805;28;20106;-83
2021/12/07 03:49:51;;;;;;;4.22;1.50;;;16.70;58.60;;;;;;5091960;28;20103;-83
2021/12/07 03:52:17;;;;;;;2.88;1.40;;;16.70;58.50;;;;;;5058620;28;20031;-83
2021/12/07 03:54:42;;;;;;;5.93;1.40;;;16.70;58.50;;;;;;5078782;28;20047;-83
2021/12/07 03:57:08;;;;;;;2.20;0.88;;;16.70;58.50;;;;;;5090500;28;20388;-83
2021/12/07 03:59:34;;;;;;;2.42;0.95;;;16.70;58.40;;;;;;5091934;28;20039;-83
2021/12/07 04:02:01;;;;;;;3.30;1.10;;;16.70;58.40;;;;;;5076070;28;20028;-83
2021/12/07 04:04:27;;;;;;;4.70;1.27;;;16.70;58.40;;;;;;5071010;28;20439;-82
2021/12/07 04:06:53;;;;;;;2.30;0.70;;;16.70;58.30;;;;;;5079809;28;20021;-83
2021/12/07 04:09:19;;;;;;;3.80;1.15;;;16.70;58.30;;;;;;5071136;28;20029;-82
2021/12/07 04:11:45;;;;;;;4.28;0.90;;;16.70;58.20;;;;;;5081667;28;20628;-82
2021/12/07 04:14:11;;;;;;;4.03;0.98;;;16.70;58.20;;;;;;5084458;28;20033;-81
2021/12/07 04:16:37;;;;;;;4.20;1.17;;;16.70;58.20;;;;;;5085073;28;20070;-82
2021/12/07 04:19:03;;;;;;;3.20;1.17;;;16.70;58.20;;;;;;5091085;28;20468;-82
2021/12/07 04:21:28;;;;;;;3.55;1.10;;;16.70;58.20;;;;;;5083448;28;20031;-81
2021/12/07 04:23:54;;;;;;;3.22;1.10;;;16.70;58.20;;;;;;5076254;28;20404;-82
2021/12/07 04:26:20;;;;;;;3.20;0.80;;;16.70;58.20;;;;;;5074500;28;20029;-83
2021/12/07 04:28:46;;;;;;;3.75;0.95;;;16.70;58.20;;;;;;5070999;28;20036;-83
2021/12/07 04:31:12;;;;;;;5.22;1.30;;;16.70;58.20;;;;;;5071770;28;20057;-82
2021/12/07 04:33:38;;;;;;;3.38;1.00;;;16.70;58.20;;;;;;5067892;28;20085;-83
2021/12/07 04:36:06;;;;;;;3.72;1.23;;;16.70;58.20;;;;;;5080926;28;20498;-82
2021/12/07 04:38:32;;;;;;;4.40;1.10;;;16.70;58.20;;;;;;5091148;28;20379;-82
2021/12/07 04:40:58;;;;;;;3.97;1.10;;;16.70;58.20;;;;;;5082171;28;20495;-81
2021/12/07 04:43:24;;;;;;;3.40;1.08;;;16.70;58.10;;;;;;5076603;28;20119;-81
2021/12/07 04:59:09;;;;;;;3.97;1.00;;;16.70;57.90;;;;;;5090614;28;20540;-83
2021/12/07 05:01:35;;;;;;;3.75;0.88;;;16.70;57.90;;;;;;5091101;28;20214;-82
2021/12/07 05:04:08;;;;;;;4.07;1.10;;;16.70;57.90;;;;;;5089129;28;20115;-82
2021/12/07 05:06:39;;;;;;;2.08;0.95;;;16.70;57.90;;;;;;5084477;28;20029;-81
2021/12/07 05:09:22;;;;;;;2.80;1.10;;;16.70;57.80;;;;;;5056826;28;20434;-83
2021/12/07 05:12:02;;;;;;;2.70;1.00;;;16.70;57.80;;;;;;5057234;28;20078;-83
2021/12/07 05:14:36;;;;;;;2.58;1.00;;;16.70;57.90;;;;;;5056258;28;20063;-83
2021/12/07 05:38:40;;;;;;;3.50;1.08;;;16.60;57.70;;;;;;5075992;28;20090;-83
2021/12/07 05:41:08;;;;;;;4.55;1.45;;;16.70;57.60;;;;;;5092912;28;20024;-83
2021/12/07 05:43:34;;;;;;;4.03;1.00;;;16.70;57.60;;;;;;5094697;28;20031;-82
2021/12/07 05:46:01;;;;;;;3.92;0.93;;;16.70;58.10;;;;;;5089777;28;20107;-82
2021/12/07 05:48:26;;;;;;;3.78;0.95;;;16.60;57.50;;;;;;5073723;28;20111;-82
2021/12/07 05:50:52;;;;;;;3.15;0.90;;;16.70;57.60;;;;;;5079967;28;20104;-81
2021/12/07 05:53:18;;;;;;;3.95;1.20;;;16.70;58.10;;;;;;5091468;28;20104;-81
2021/12/07 05:55:43;;;;;;;2.63;1.00;;;16.70;57.50;;;;;;5090879;28;20473;-83
2021/12/07 05:58:09;;;;;;;3.50;1.15;;;16.70;57.50;;;;;;5092980;28;20536;-84
2021/12/07 06:00:36;;;;;;;5.18;1.15;;;16.70;57.60;;;;;;5084201;28;20443;-82
2021/12/07 06:03:07;;;;;;;3.25;0.95;;;16.70;57.50;;;;;;5091301;28;20123;-81
2021/12/07 06:05:34;;;;;;;3.78;1.10;;;16.70;57.60;;;;;;5089722;28;20021;-83
2021/12/07 06:08:00;;;;;;;4.13;1.17;;;16.70;57.60;;;;;;5091842;28;20111;-82
2021/12/07 06:10:26;;;;;;;3.65;1.08;;;16.70;57.50;;;;;;5089930;28;20031;-83
2021/12/07 06:12:53;;;;;;;3.08;1.05;;;16.70;57.50;;;;;;5091930;28;20028;-85
2021/12/07 06:15:21;;;;;;;3.70;0.85;;;16.70;57.50;;;;;;5080303;28;20040;-83
2021/12/07 06:17:48;;;;;;;3.75;1.08;;;16.80;57.50;;;;;;5079019;28;20112;-84
2021/12/07 06:20:14;;;;;;;5.05;1.45;;;16.80;57.50;;;;;;5073506;28;20402;-81
2021/12/07 06:22:39;;;;;;;3.42;1.00;;;16.80;57.40;;;;;;5085165;28;20047;-82
2021/12/07 06:25:06;;;;;;;4.13;1.00;;;16.80;57.40;;;;;;5073680;28;20032;-84
2021/12/07 06:27:32;;;;;;;3.40;1.30;;;16.80;57.50;;;;;;5072896;28;20112;-82
2021/12/07 06:29:58;;;;;;;3.70;1.40;;;16.80;57.40;;;;;;5073168;28;20029;-81
2021/12/07 06:32:25;;;;;;;5.63;1.30;;;16.80;57.90;;;;;;5073846;28;20036;-82
2021/12/07 06:34:51;;;;;;;2.25;0.90;;;16.90;57.40;;;;;;5084017;28;20026;-83
2021/12/07 06:37:17;;;;;;;4.78;1.13;;;16.90;57.40;;;;;;5072752;28;20055;-82
2021/12/07 06:39:42;;;;;;;4.03;1.17;;;16.90;57.40;;;;;;5087632;28;20056;-82
2021/12/07 06:42:08;;;;;;;3.95;1.13;;;16.90;57.40;;;;;;5092983;28;20032;-83
2021/12/07 06:44:34;;;;;;;2.65;1.02;;;16.90;57.30;;;;;;5092887;28;20112;-81
2021/12/07 06:46:59;;;;;;;3.78;1.52;;;16.90;57.30;;;;;;5093139;28;20094;-83
2021/12/07 06:49:25;;;;;;;2.63;0.82;;;16.90;57.30;;;;;;5074611;28;20059;-83
2021/12/07 06:51:51;;;;;;;3.35;1.10;;;16.90;57.30;;;;;;5091646;28;20031;-82
2021/12/07 06:54:17;;;;;;;4.25;1.40;;;16.90;57.30;;;;;;5092893;28;20016;-82
2021/12/07 06:56:43;;;;;;;3.40;0.98;;;16.90;57.30;;;;;;5092862;28;20046;-81
2021/12/07 06:59:08;;;;;;;5.43;1.30;;;17.00;57.30;;;;;;5092590;28;20376;-86
2021/12/07 07:01:35;;;;;;;5.38;1.48;;;17.00;57.50;;;;;;5074906;28;20028;-82
2021/12/07 07:04:01;;;;;;;5.70;1.17;;;17.00;57.50;;;;;;5092681;28;20054;-82
2021/12/07 07:06:27;;;;;;;2.85;1.00;;;17.00;57.60;;;;;;5092070;28;20099;-84
2021/12/07 07:08:53;;;;;;;9.63;2.38;;;17.00;57.70;;;;;;5074405;28;20088;-83
2021/12/07 07:11:19;;;;;;;4.20;1.33;;;17.00;57.70;;;;;;5092388;28;20488;-84
2021/12/07 07:13:46;;;;;;;4.95;1.40;;;17.00;58.20;;;;;;5092491;28;20499;-85
2021/12/07 07:16:12;;;;;;;4.88;1.88;;;17.00;57.60;;;;;;5074211;28;20036;-81
2021/12/07 07:18:39;;;;;;;4.70;1.40;;;17.00;57.50;;;;;;5092545;28;20023;-82
2021/12/07 07:21:06;;;;;;;6.63;1.75;;;17.00;57.40;;;;;;5092402;28;20031;-81
2021/12/07 07:23:32;;;;;;;4.25;1.35;;;17.00;57.40;;;;;;5092061;28;20472;-81
2021/12/07 07:25:58;;;;;;;3.35;1.30;;;17.00;57.30;;;;;;5068287;28;20120;-79
2021/12/07 07:28:29;;;;;;;7.07;1.50;;;17.00;57.20;;;;;;5076555;28;20035;-79
2021/12/07 07:30:56;;;;;;;7.53;1.55;;;17.10;57.20;;;;;;5079546;28;20077;-80
2021/12/07 07:33:21;;;;;;;4.47;1.50;;;17.00;57.20;;;;;;5086957;28;20027;-79
2021/12/07 07:35:47;;;;;;;5.00;1.90;;;17.00;57.20;;;;;;5071830;28;20403;-81
2021/12/07 07:38:13;;;;;;;7.05;1.30;;;17.00;57.20;;;;;;5071645;28;20074;-80
2021/12/07 07:40:39;;;;;;;5.47;1.70;;;17.00;57.20;;;;;;5089495;28;20020;-81
2021/12/07 07:43:05;;;;;;;3.63;1.40;;;17.00;57.20;;;;;;5092806;28;20035;-83
2021/12/07 07:45:30;;;;;;;4.13;1.25;;;17.00;57.70;;;;;;5090959;28;20028;-83
2021/12/07 07:47:56;;;;;;;7.88;1.90;;;17.00;57.10;;;;;;5092216;28;20124;-82
2021/12/07 07:50:22;;;;;;;6.03;1.60;;;17.00;57.00;;;;;;5090770;28;20020;-81
2021/12/07 07:52:48;;;;;;;6.13;1.77;;;17.00;57.00;;;;;;5090957;28;20058;-81
2021/12/07 07:55:14;;;;;;;3.17;1.10;;;17.00;57.00;;;;;;5091657;28;20024;-82
2021/12/07 07:57:40;;;;;;;6.03;1.85;;;17.00;57.00;;;;;;5091775;28;20031;-82
2021/12/07 08:00:09;;;;;;;8.05;2.20;;;17.00;56.90;;;;;;5091605;28;20040;-81
2021/12/07 08:02:35;;;;;;;7.05;1.60;;;17.00;56.90;;;;;;5095971;28;20054;-81
2021/12/07 08:05:01;;;;;;;8.88;1.77;;;16.90;56.90;;;;;;5094938;28;20027;-81
2021/12/07 08:07:27;;;;;;;7.05;2.10;;;17.00;57.00;;;;;;5091016;28;20392;-82
2021/12/07 08:09:52;;;;;;;4.80;1.60;;;17.00;56.80;;;;;;5090903;28;20028;-81
2021/12/07 08:12:18;;;;;;;6.50;1.75;;;16.90;56.80;;;;;;5091250;28;20024;-81
2021/12/07 08:14:44;;;;;;;6.18;1.67;;;17.00;56.90;;;;;;5090942;28;20020;-82
2021/12/07 08:17:10;;;;;;;7.30;1.88;;;17.00;57.00;;;;;;5088357;28;20032;-81
2021/12/07 08:19:36;;;;;;;10.93;1.80;;;17.00;57.00;;;;;;5091641;28;20028;-83
2021/12/07 08:22:02;;;;;;;7.18;2.10;;;17.00;56.90;;;;;;5090854;28;20023;-82
2021/12/07 08:24:28;;;;;;;6.43;1.75;;;16.90;57.00;;;;;;5091056;28;20036;-84
2021/12/07 08:26:54;;;;;;;5.53;1.98;;;16.90;57.20;;;;;;5086676;28;20028;-84
2021/12/07 08:29:19;;;;;;;5.57;1.90;;;16.90;57.10;;;;;;5080764;28;20024;-83
2021/12/07 08:31:45;;;;;;;7.30;1.83;;;16.90;57.10;;;;;;5090320;28;20020;-83
2021/12/07 08:34:11;;;;;;;6.00;1.88;;;16.90;57.20;;;;;;5091079;28;20032;-84
2021/12/07 08:36:36;;;;;;;8.95;2.45;;;16.90;57.20;;;;;;5091587;28;20024;-83
2021/12/07 08:39:05;;;;;;;4.25;1.67;;;16.90;57.10;;;;;;5090892;28;20020;-84
2021/12/07 08:41:30;;;;;;;7.05;2.20;;;16.90;57.10;;;;;;5091301;28;20111;-84
2021/12/07 08:43:56;;;;;;;4.53;1.90;;;16.90;57.20;;;;;;5094826;28;20162;-84
2021/12/07 08:46:23;;;;;;;7.38;2.08;;;16.90;57.10;;;;;;5095247;28;20028;-83
2021/12/07 08:48:48;;;;;;;12.20;2.28;;;16.80;57.00;;;;;;5095340;28;20028;-84
2021/12/07 08:51:15;;;;;;;5.53;1.67;;;16.90;57.60;;;;;;5085723;28;20017;-83
2021/12/07 08:53:59;;;;;;;9.15;2.78;;;16.90;57.00;;;;;;5082176;28;20023;-84
2021/12/07 09:01:53;;;;;;;9.13;2.63;;;16.90;56.90;;;;;;5094345;28;20035;-84
2021/12/07 09:04:20;;;;;;;9.60;2.60;;;16.80;56.80;;;;;;5094139;28;20550;-84
2021/12/07 09:06:47;;;;;;;14.52;2.38;;;16.80;56.80;;;;;;5095152;28;20028;-84
2021/12/07 09:09:13;;;;;;;7.95;2.80;;;16.80;57.30;;;;;;5094290;28;20024;-84
2021/12/07 09:11:40;;;;;;;7.80;2.17;;;16.80;56.70;;;;;;5095034;28;20057;-83
2021/12/07 09:14:09;;;;;;;10.07;2.85;;;16.80;56.70;;;;;;5093518;28;20031;-84
2021/12/07 09:16:36;;;;;;;8.32;2.67;;;16.80;56.70;;;;;;5076371;28;20031;-83
2021/12/07 09:19:04;;;;;;;13.60;2.92;;;16.80;56.60;;;;;;5094866;28;20035;-84
2021/12/07 09:21:29;;;;;;;9.27;2.80;;;16.80;56.60;;;;;;5093876;28;20096;-84
2021/12/07 09:23:55;;;;;;;12.35;2.13;;;16.80;56.60;;;;;;5094363;28;20411;-84
2021/12/07 09:26:21;;;;;;;10.65;2.90;;;16.80;56.60;;;;;;5076347;28;20024;-84
2021/12/07 09:28:46;;;;;;;10.70;2.30;;;16.80;56.50;;;;;;5094244;28;20071;-84
2021/12/07 09:31:13;;;;;;;11.07;2.50;;;16.80;56.50;;;;;;5094414;28;20101;-84
2021/12/07 09:33:41;;;;;;;15.30;3.15;;;16.80;56.40;;;;;;5094537;28;20028;-83
2021/12/07 09:36:09;;;;;;;11.75;2.53;;;16.80;56.40;;;;;;5094858;28;20103;-84
2021/12/07 09:38:35;;;;;;;12.50;3.20;;;16.70;56.30;;;;;;5094912;28;20051;-83
2021/12/07 09:41:02;;;;;;;13.68;2.63;;;16.70;56.30;;;;;;5094442;28;20052;-84
2021/12/07 09:43:28;;;;;;;9.85;2.17;;;16.80;56.30;;;;;;5093900;28;20048;-83
2021/12/07 09:45:54;;;;;;;9.30;3.03;;;16.80;56.30;;;;;;5093828;28;20020;-82
2021/12/07 09:48:20;;;;;;;9.75;3.20;;;16.80;56.20;;;;;;5094070;28;20031;-82
2021/12/07 09:50:49;;;;;;;8.75;2.58;;;16.80;56.20;;;;;;5093824;28;20024;-83
2021/12/07 09:53:16;;;;;;;16.35;3.05;;;16.80;56.20;;;;;;5093582;28;20057;-83
2021/12/07 09:55:43;;;;;;;14.73;2.63;;;16.70;56.20;;;;;;5094149;28;20027;-83
2021/12/07 09:58:09;;;;;;;13.57;2.53;;;16.70;56.10;;;;;;5093622;28;20035;-84
2021/12/07 10:00:37;;;;;;;14.02;2.88;;;16.70;56.10;;;;;;5093612;28;20032;-83
2021/12/07 10:03:03;;;;;;;12.05;3.20;;;16.70;56.10;;;;;;5093973;28;20036;-84
2021/12/07 10:05:31;;;;;;;15.50;3.72;;;16.80;56.10;;;;;;5092770;28;20023;-84
2021/12/07 10:07:58;;;;;;;13.63;2.70;;;16.80;56.10;;;;;;5093938;28;20030;-84
2021/12/07 10:10:33;;;;;;;10.63;2.63;;;16.70;56.10;;;;;;5093573;28;20016;-83
2021/12/07 10:13:00;;;;;;;10.75;2.63;;;16.70;56.10;;;;;;5093661;28;20031;-84
2021/12/07 10:15:27;;;;;;;17.50;3.15;;;16.70;56.00;;;;;;5092673;28;20101;-83
2021/12/07 10:18:09;;;;;;;9.05;2.20;;;16.80;56.10;;;;;;5093250;28;20047;-83
2021/12/07 10:20:40;;;;;;;13.52;2.58;;;16.80;56.10;;;;;;5073829;28;20389;-83
2021/12/07 10:23:33;;;;;;;17.60;3.97;;;16.80;56.00;;;;;;5090877;28;20040;-83
2021/12/07 10:26:01;;;;;;;12.75;3.00;;;16.80;56.00;;;;;;5093530;28;20074;-82
2021/12/07 10:28:27;;;;;;;7.53;2.45;;;16.80;56.00;;;;;;5074351;28;20541;-84
2021/12/07 10:30:53;;;;;;;10.50;2.67;;;16.80;55.90;;;;;;5092472;28;20024;-84
2021/12/07 10:33:52;;;;;;;12.05;2.92;;;16.80;55.90;;;;;;5093284;28;20020;-84
2021/12/07 10:36:29;;;;;;;11.95;3.08;;;16.90;56.00;;;;;;5074496;28;20035;-83
2021/12/07 10:39:09;;;;;;;14.20;2.65;;;16.90;55.90;;;;;;5093348;28;20055;-84
2021/12/07 10:41:38;;;;;;;11.77;2.40;;;16.90;55.90;;;;;;5093706;28;20023;-83
2021/12/07 10:44:04;;;;;;;12.73;2.88;;;;;;;;;;5093177;28;20032;-83
2021/12/07 10:46:32;;;;;;;8.57;2.65;;;;;;;;;;5092853;28;20442;-83
2021/12/07 10:49:07;;;;;;;9.32;2.65;;;;;;;;;;5093113;28;20031;-83
2021/12/07 10:51:33;;;;;;;8.73;2.58;;;;;;;;;;5093280;28;20031;-83
2021/12/07 10:53:59;;;;;;;13.18;3.30;;;;;;;;;;5074912;28;20028;-83
2021/12/07 10:56:32;;;;;;;19.13;2.67;;;;;;;;;;5092135;28;20496;-82
2021/12/07 10:59:09;;;;;;;9.43;2.40;;;;;;;;;;5091468;28;20047;-84
2021/12/07 11:01:35;;;;;;;12.48;2.55;;;;;;;;;;5092685;28;20089;-84
2021/12/07 11:04:19;;;;;;;11.27;2.83;;;;;;;;;;5091425;28;20492;-84
2021/12/07 11:07:04;;;;;;;8.75;2.60;;;;;;;;;;5092074;28;20061;-85
2021/12/07 11:09:30;;;;;;;10.63;2.45;;;;;;;;;;5092597;28;20036;-85
2021/12/07 11:12:10;;;;;;;11.00;2.20;;;;;;;;;;5092642;28;20031;-85
2021/12/07 11:14:51;;;;;;;9.23;2.70;;;;;;;;;;5092835;28;20419;-84
2021/12/07 11:17:19;;;;;;;12.77;2.58;;;;;;;;;;5092435;28;20441;-83
2021/12/07 11:19:45;;;;;;;10.40;2.42;;;;;;;;;;5073164;28;20035;-81
2021/12/07 11:22:16;;;;;;;6.78;2.22;;;;;;;;;;5091531;28;20085;-84
2021/12/07 11:24:44;;;;;;;6.30;1.95;;;;;;;;;;5092488;28;20111;-83
2021/12/07 11:29:57;;;;;;;9.90;2.35;;;;;;;;;;5092547;28;20086;-83
2021/12/07 11:32:23;;;;;;;9.43;2.38;;;;;;;;;;5091916;28;20032;-84
2021/12/07 11:34:49;;;;;;;9.73;2.25;;;;;;;;;;5092158;28;20047;-84
2021/12/07 11:37:15;;;;;;;6.35;2.20;;;;;;;;;;5091965;28;20059;-81
2021/12/07 11:39:47;;;;;;;8.13;2.38;;;;;;;;;;5092217;28;20099;-81
2021/12/07 11:42:15;;;;;;;10.02;2.33;;;;;;;;;;5073510;28;20024;-84
2021/12/07 11:44:59;;;;;;;7.75;2.17;;;;;;;;;;5091977;28;20028;-82
2021/12/07 11:47:29;;;;;;;9.77;2.40;;;;;;;;;;5091821;28;20441;-83
2021/12/07 11:49:55;;;;;;;9.43;2.38;;;;;;;;;;5091962;28;20028;-84
2021/12/07 11:52:22;;;;;;;6.82;1.70;;;;;;;;;;5091731;28;20039;-83
2021/12/07 11:54:48;;;;;;;14.13;1.95;;;;;;;;;;5091835;28;20081;-82
2021/12/07 11:57:15;;;;;;;9.55;2.42;;;;;;;;;;5073201;28;20024;-82
2021/12/07 11:59:42;;;;;;;10.35;2.08;;;;;;;;;;5091655;28;20433;-81
2021/12/07 12:02:08;;;;;;;6.53;1.98;;;;;;;;;;5091531;28;20510;-77
2021/12/07 12:04:34;;;;;;;6.70;1.58;;;;;;;;;;5091982;28;20389;-82
2021/12/07 12:07:01;;;;;;;8.70;2.30;;;;;;;;;;5091596;28;20027;-82
2021/12/07 12:09:27;;;;;;;6.65;2.10;;;;;;;;;;5091369;28;20028;-84
2021/12/07 12:11:56;;;;;;;5.93;1.80;;;;;;;;;;5091477;28;20095;-80
2021/12/07 12:14:41;;;;;;;7.70;2.50;;;;;;;;;;5091378;28;20020;-83
2021/12/07 12:17:08;;;;;;;8.25;1.73;;;;;;;;;;5091077;28;20029;-80
2021/12/07 12:19:43;;;;;;;8.52;2.00;;;;;;;;;;5091818;28;20054;-83
2021/12/07 12:22:29;;;;;;;5.60;1.75;;;;;;;;;;5091062;28;20020;-79
2021/12/07 12:24:58;;;;;;;7.43;2.40;;;;;;;;;;5040558;28;20040;-85
2021/12/07 12:27:33;;;;;;;8.65;1.77;;;;;;;;;;5091153;28;20051;-85
2021/12/07 12:30:01;;;;;;;4.68;1.70;;;;;;;;;;5091400;28;20556;-84
2021/12/07 12:32:27;;;;;;;7.75;2.25;;;;;;;;;;5091051;28;20031;-84
2021/12/07 12:34:55;;;;;;;7.10;1.55;;;;;;;;;;5091334;28;20391;-85
2021/12/07 12:37:22;;;;;;;5.15;1.85;;;;;;;;;;5091091;28;20061;-84
2021/12/07 12:39:48;;;;;;;8.32;2.78;;;;;;;;;;5091166;28;20537;-84
2021/12/07 12:42:29;;;;;;;7.22;1.85;;;;;;;;;;5090877;28;20024;-84
2021/12/07 12:45:04;;;;;;;4.25;1.90;;;;;;;;;;5091254;28;20036;-84
2021/12/07 12:47:31;;;;;;;12.25;2.13;;;;;;;;;;5091021;28;20061;-85
2021/12/07 12:50:09;;;;;;;4.20;1.38;;;;;;;;;;5091163;28;20028;-84
2021/12/07 12:52:39;;;;;;;9.32;1.73;;;;;;;;;;5091493;28;20029;-84
2021/12/07 12:55:05;;;;;;;7.90;1.85;;;;;;;;;;5091452;28;20020;-84
2021/12/07 12:57:31;;;;;;;4.75;1.60;;;;;;;;;;5090886;28;20398;-84
2021/12/07 12:59:57;;;;;;;7.63;1.50;;;;;;;;;;5091001;28;20590;-85
2021/12/07 13:02:28;;;;;;;5.05;1.58;;;;;;;;;;5071727;28;20047;-81
2021/12/07 13:05:02;;;;;;;4.05;1.63;;;;;;;;;;5091147;28;20012;-80
2021/12/07 13:07:28;;;;;;;7.68;1.73;;;;;;;;;;5090990;28;20961;-80
2021/12/07 13:10:01;;;;;;;9.60;2.00;;;;;;;;;;5095906;28;20055;-83
2021/12/07 13:12:27;;;;;;;8.80;2.67;;;;;;;;;;5090869;28;20020;-84
2021/12/07 13:14:55;;;;;;;12.38;2.80;;;;;;;;;;5090215;28;20032;-82
2021/12/07 13:17:27;;;;;;;6.22;2.80;;;;;;;;;;5090612;28;20024;-82
2021/12/07 13:20:08;;;;;;;9.05;2.88;;;;;;;;;;5090895;28;20106;-84
2021/12/07 13:22:38;;;;;;;11.85;2.25;;;;;;;;;;5091186;28;20494;-83
2021/12/07 13:25:12;;;;;;;7.30;2.03;;;;;;;;;;5072916;28;20077;-83
2021/12/07 13:27:39;;;;;;;7.85;2.10;;;;;;;;;;5090715;28;20089;-83
2021/12/07 13:30:09;;;;;;;7.00;2.33;;;;;;;;;;5094207;28;20032;-83
2021/12/07 13:32:35;;;;;;;9.95;2.13;;;;;;;;;;5094421;28;20024;-83
2021/12/07 13:35:02;;;;;;;6.55;2.28;;;;;;;;;;5093579;28;20392;-83
2021/12/07 13:37:45;;;;;;;8.23;1.92;;;;;;;;;;5094358;28;20028;-80
2021/12/07 13:40:19;;;;;;;6.43;2.33;;;;;;;;;;5094176;28;20376;-82
2021/12/07 13:42:51;;;;;;;6.47;1.98;;;;;;;;;;5094372;28;20582;-80
2021/12/07 13:45:19;;;;;;;10.45;2.65;;;;;;;;;;5092335;28;20032;-82
2021/12/07 13:47:46;;;;;;;9.60;2.13;;;;;;;;;;5092688;28;20036;-83
2021/12/07 13:50:16;;;;;;;6.47;2.50;;;;;;;;;;5073301;28;20028;-83
2021/12/07 13:52:43;;;;;;;5.25;1.33;;;;;;;;;;5056043;28;20124;-84
2021/12/07 13:55:11;;;;;;;8.63;1.55;;;;;;;;;;5073782;28;20039;-83
2021/12/07 13:57:39;;;;;;;3.63;1.40;;;;;;;;;;5056125;28;20035;-84
2021/12/07 14:00:08;;;;;;;7.40;2.15;;;;;;;;;;5086210;28;20040;-84
2021/12/07 14:02:35;;;;;;;5.53;1.70;;;;;;;;;;5094253;28;20070;-83
2021/12/07 14:05:02;;;;;;;6.30;1.77;;;;;;;;;;5094003;28;20423;-84
2021/12/07 14:07:31;;;;;;;6.20;1.73;;;;;;;;;;5092941;28;20036;-84
2021/12/07 14:10:03;;;;;;;5.55;1.60;;;;;;;;;;5075315;28;20028;-83
2021/12/07 14:12:29;;;;;;;4.95;1.60;;;;;;;;;;5093496;28;20550;-83
2021/12/07 14:14:55;;;;;;;7.68;1.33;;;;;;;;;;5092818;28;20074;-83
2021/12/07 14:17:21;;;;;;;8.68;1.60;;;;;;;;;;5093579;28;20024;-83
2021/12/07 14:19:47;;;;;;;4.10;1.67;;;;;;;;;;5075183;28;20053;-84
2021/12/07 14:22:13;;;;;;;5.13;1.80;;;;;;;;;;5073251;28;20021;-83
2021/12/07 14:24:39;;;;;;;5.60;1.70;;;;;;;;;;5073352;28;20074;-82
2021/12/07 14:27:05;;;;;;;5.85;1.50;;;;;;;;;;5092985;28;20073;-83
2021/12/07 14:29:31;;;;;;;4.65;1.35;;;;;;;;;;5092584;28;20050;-83
2021/12/07 14:31:58;;;;;;;5.93;1.67;;;;;;;;;;5093582;28;20387;-84
2021/12/07 14:34:30;;;;;;;6.15;1.83;;;;;;;;;;5092673;28;20035;-83
2021/12/07 14:36:58;;;;;;;4.00;1.67;;;;;;;;;;5093349;28;20020;-83
2021/12/07 14:39:25;;;;;;;6.10;1.50;;;;;;;;;;5092203;28;20026;-83
2021/12/07 14:41:53;;;;;;;6.35;1.75;;;;;;;;;;5092892;28;20070;-84
2021/12/07 14:44:27;;;;;;;4.85;1.75;;;;;;;;;;5091433;28;20569;-84
2021/12/07 14:46:53;;;;;;;3.90;1.60;;;;;;;;;;5092674;28;20028;-83
2021/12/07 14:49:20;;;;;;;5.75;1.90;;;;;;;;;;5081404;28;20032;-82
2021/12/07 14:51:46;;;;;;;7.85;1.58;;;;;;;;;;5073048;28;20033;-83
2021/12/07 14:54:13;;;;;;;3.72;1.35;;;;;;;;;;5054486;28;20020;-83
2021/12/07 14:56:39;;;;;;;5.13;1.75;;;;;;;;;;5072848;28;20025;-83
2021/12/07 14:59:07;;;;;;;5.88;1.83;;;;;;;;;;5080453;28;20036;-83
2021/12/07 15:01:35;;;;;;;4.28;1.33;;;;;;;;;;5073183;28;20024;-83
2021/12/07 15:04:03;;;;;;;3.58;1.58;;;;;;;;;;5074606;28;20035;-84
2021/12/07 15:06:30;;;;;;;7.05;1.60;;;;;;;;;;5092593;28;20395;-83
2021/12/07 15:08:57;;;;;;;5.10;1.48;;;;;;;;;;5092746;28;20032;-83